首页
METAR-TAF:

METAR-TAF

机场 :

卢森堡-芬德尔国际机场

卢森堡, 卢森堡

纬度: 49-37N, 经度: 006-13E, 海拔: 376米

当前天气观测

该预报发布于36分钟前的01:20 UTC
风速5节,风向东转东南
温度 -3°C
湿度 93%
气压 997 hPa
能見度: 1400
轻雾

METAR: ELLX 230120Z AUTO 12005KT 1400 R24/P2000N BR OVC001/// M03/M04 Q0997 TEMPO 3000

时间: 02:56 (01:56 UTC)

预报

该预报发布于2小时和56分钟前的23:00 UTC
预报有效从23日的 00点(UTC)到 24日的 06点(UTC)
风速5节,风向东南
能見度: 3000
散云层高于100英尺
多云层高于200英尺
轻雾
几率 40% :
短暂存在
从 23日的 00点(UTC)到 23日的 05点(UTC)
(小) 米雪
短暂存在
从 23日的 05点(UTC)到 23日的 12点(UTC)
小雪
几率 40%
从 23日的 07点(UTC)到 23日的 10点(UTC)
能見度: 1200
多云层高于800英尺, 积雨云.
阵雪
成为
从 23日的 12点(UTC)到 23日的 15点(UTC)
风速6节,风向北转东北
能见度10公里或以上
多云层高于1500英尺

TAF: ELLX 222300Z 2300/2406 13005KT 3000 BR SCT001 BKN002 PROB40 TEMPO 2300/2305 -SG TEMPO 2305/2312 -SN PROB40 2307/2310 1200 SHSN BKN008CB BECMG 2312/2315 03006KT 9999 BKN015

超过4000个机场的气象观测和天气预报(METAR&TAF报告)。

可查询的气象台以黄色和红色小点在地图上表示。

将鼠标移到小点上方,可查看气象台名称。

然后点击查看天气观测和预报。

如需切换地图:点击带黑十字的绿色按钮放大地图;点击带横线的绿色按钮缩小地图;或者点击绿色箭头查看邻近地区的地图。


METAR-TAF: